createdAt,value
2018-07-26T00:00:22.545Z,70.10
2018-07-26T00:02:50.932Z,70.30
2018-07-26T00:05:19.393Z,70.40
2018-07-26T00:07:47.788Z,70.40
2018-07-26T00:10:16.301Z,70.40
2018-07-26T00:12:44.762Z,70.60
2018-07-26T00:15:13.224Z,70.60
2018-07-26T00:17:42.216Z,70.80
2018-07-26T00:20:10.825Z,70.80
2018-07-26T00:22:39.385Z,70.70
2018-07-26T00:25:07.932Z,70.80
2018-07-26T00:27:36.423Z,71.10
2018-07-26T00:30:04.960Z,71.30
2018-07-26T00:32:33.354Z,71.30
2018-07-26T00:35:08.317Z,71.30
2018-07-26T00:37:36.700Z,71.30
2018-07-26T00:45:01.785Z,71.30
2018-07-26T00:47:30.213Z,71.30
2018-07-26T00:49:58.598Z,71.60
2018-07-26T00:54:55.136Z,71.90
2018-07-26T00:57:23.560Z,71.90
2018-07-26T00:59:51.994Z,71.80
2018-07-26T01:02:20.381Z,71.90
2018-07-26T01:04:48.874Z,72.20
2018-07-26T01:07:17.300Z,72.30
2018-07-26T01:09:45.785Z,72.30
2018-07-26T01:12:14.204Z,72.30
2018-07-26T01:14:43.879Z,72.50
2018-07-26T01:17:12.269Z,72.40
2018-07-26T01:19:40.658Z,72.50
2018-07-26T01:22:09.097Z,72.50
2018-07-26T01:24:37.539Z,72.60
2018-07-26T01:27:05.917Z,72.60
2018-07-26T01:29:34.355Z,72.70
2018-07-26T01:32:02.762Z,72.80
2018-07-26T01:34:31.429Z,72.90
2018-07-26T01:36:59.813Z,72.90
2018-07-26T01:39:28.245Z,73.10
2018-07-26T01:41:56.714Z,73.10
2018-07-26T01:46:53.968Z,73.10
2018-07-26T01:49:22.354Z,73.20
2018-07-26T01:51:50.793Z,73.30
2018-07-26T01:54:19.199Z,73.30
2018-07-26T01:56:47.693Z,73.50
2018-07-26T01:59:16.096Z,73.40
2018-07-26T02:01:44.584Z,73.60
2018-07-26T02:04:13.013Z,73.60
2018-07-26T02:06:41.449Z,73.50
2018-07-26T02:09:10.657Z,73.50
2018-07-26T02:11:39.116Z,73.60
2018-07-26T02:14:38.569Z,73.50
2018-07-26T02:17:07.280Z,73.60
2018-07-26T02:19:35.985Z,74.60
2018-07-26T02:22:04.485Z,73.90
2018-07-26T02:24:32.928Z,74.10
2018-07-26T02:27:01.396Z,74.50
2018-07-26T02:29:29.832Z,74.80
2018-07-26T02:31:58.262Z,74.70
2018-07-26T02:34:26.674Z,74.60
2018-07-26T02:36:55.143Z,74.60
2018-07-26T02:39:23.549Z,74.40
2018-07-26T02:41:51.935Z,74.50
2018-07-26T02:44:20.612Z,74.70
2018-07-26T02:46:48.977Z,74.70
2018-07-26T02:51:45.509Z,75.00
2018-07-26T02:54:14.004Z,74.90
2018-07-26T02:56:42.420Z,75.40
2018-07-26T02:59:11.113Z,75.20
2018-07-26T03:01:39.509Z,75.50
2018-07-26T03:04:07.950Z,75.60
2018-07-26T03:06:36.360Z,76.20
2018-07-26T03:09:06.927Z,76.50
2018-07-26T03:11:35.345Z,77.10
2018-07-26T03:14:14.400Z,76.20
2018-07-26T03:16:42.812Z,76.70
2018-07-26T03:19:11.281Z,75.40
2018-07-26T03:21:39.680Z,75.50
2018-07-26T03:24:08.189Z,75.50
2018-07-26T03:26:36.674Z,76.00
2018-07-26T03:29:05.747Z,76.30
2018-07-26T03:31:34.200Z,77.10
2018-07-26T03:34:02.629Z,76.40
2018-07-26T03:36:31.066Z,76.40
2018-07-26T03:39:00.027Z,76.80
2018-07-26T03:41:28.453Z,76.70
2018-07-26T03:43:57.196Z,77.60
2018-07-26T03:48:53.733Z,77.10
2018-07-26T03:51:22.159Z,77.30
2018-07-26T03:53:50.528Z,77.50
2018-07-26T03:56:18.925Z,77.40
2018-07-26T03:58:47.304Z,77.60
2018-07-26T04:01:15.724Z,77.90
2018-07-26T04:03:44.412Z,78.00
2018-07-26T04:06:12.837Z,78.40
2018-07-26T04:08:41.245Z,78.40
2018-07-26T04:11:14.569Z,78.40
2018-07-26T04:13:43.061Z,78.40
2018-07-26T04:16:11.827Z,78.30
2018-07-26T04:18:40.208Z,78.40
2018-07-26T04:21:08.608Z,78.40
2018-07-26T04:23:37.142Z,78.60
2018-07-26T04:26:05.616Z,78.80
2018-07-26T04:28:34.100Z,78.90
2018-07-26T04:31:02.520Z,79.10
2018-07-26T04:33:30.890Z,79.20
2018-07-26T04:35:59.309Z,79.30
2018-07-26T04:38:27.691Z,79.30
2018-07-26T04:40:56.197Z,79.50
2018-07-26T04:43:25.906Z,79.60
2018-07-26T04:45:54.386Z,79.60
2018-07-26T04:48:24.301Z,79.80
2018-07-26T04:50:52.746Z,80.90
2018-07-26T04:53:21.154Z,81.10
2018-07-26T04:55:49.553Z,80.80
2018-07-26T04:58:18.330Z,80.90
2018-07-26T05:00:46.719Z,81.20
2018-07-26T05:03:15.139Z,81.30
2018-07-26T05:05:43.579Z,81.50
2018-07-26T05:08:12.039Z,81.60
2018-07-26T05:10:40.393Z,81.70
2018-07-26T05:13:08.842Z,82.10
2018-07-26T05:15:37.371Z,82.40
2018-07-26T05:18:06.537Z,82.40
2018-07-26T05:20:35.092Z,82.60
2018-07-26T05:23:03.500Z,83.00
2018-07-26T05:25:32.031Z,83.20
2018-07-26T05:28:00.449Z,83.20
2018-07-26T05:30:35.565Z,83.50
2018-07-26T05:33:04.011Z,83.70
2018-07-26T05:35:32.436Z,83.90
2018-07-26T05:38:00.884Z,83.80
2018-07-26T05:40:29.428Z,83.80
2018-07-26T05:42:57.884Z,84.10
2018-07-26T05:45:26.363Z,84.40
2018-07-26T05:47:54.814Z,84.70
2018-07-26T05:50:23.357Z,84.80
2018-07-26T05:52:51.788Z,84.70
2018-07-26T05:55:24.161Z,84.90
2018-07-26T05:57:52.639Z,84.50
2018-07-26T06:00:21.161Z,84.70
2018-07-26T06:02:49.560Z,85.10
2018-07-26T06:05:18.232Z,85.40
2018-07-26T06:07:46.708Z,85.80
2018-07-26T06:10:15.222Z,85.90
2018-07-26T06:12:46.607Z,85.50
2018-07-26T06:15:21.887Z,84.90
2018-07-26T06:17:50.310Z,84.90
2018-07-26T06:20:18.808Z,85.00
2018-07-26T06:22:47.205Z,85.10
2018-07-26T06:25:16.114Z,85.30
2018-07-26T06:27:44.527Z,85.10
2018-07-26T06:30:13.084Z,84.50
2018-07-26T06:32:41.889Z,85.00
2018-07-26T06:35:10.657Z,84.50
2018-07-26T06:37:39.501Z,84.80
2018-07-26T06:40:07.969Z,84.60
2018-07-26T06:42:36.439Z,84.40
2018-07-26T06:45:06.381Z,84.20
2018-07-26T06:47:34.823Z,84.20
2018-07-26T06:50:03.384Z,84.50
2018-07-26T06:52:31.906Z,84.60
2018-07-26T06:55:00.313Z,84.30
2018-07-26T06:57:28.755Z,84.40
2018-07-26T06:59:57.166Z,84.50
2018-07-26T07:02:25.608Z,84.70
2018-07-26T07:04:54.057Z,84.60
2018-07-26T07:07:22.498Z,84.70
2018-07-26T07:09:50.865Z,84.90
2018-07-26T07:12:19.261Z,85.00
2018-07-26T07:15:04.127Z,85.00
2018-07-26T07:17:32.533Z,84.90
2018-07-26T07:20:00.981Z,85.10
2018-07-26T07:22:29.404Z,85.00
2018-07-26T07:27:25.941Z,84.80
2018-07-26T07:29:54.385Z,84.50
2018-07-26T07:32:22.795Z,84.40
2018-07-26T07:34:51.205Z,84.50
2018-07-26T07:37:19.597Z,84.50
2018-07-26T07:39:47.977Z,84.50
2018-07-26T07:42:16.384Z,84.40
2018-07-26T07:44:44.799Z,84.30
2018-07-26T07:47:13.250Z,84.50
2018-07-26T07:49:41.626Z,84.60
2018-07-26T07:52:10.453Z,85.60
2018-07-26T07:54:38.845Z,84.70
2018-07-26T07:57:07.241Z,84.90
2018-07-26T07:59:35.713Z,84.80
2018-07-26T08:02:04.362Z,85.00
2018-07-26T08:04:33.660Z,84.70
2018-07-26T08:07:02.050Z,84.70
2018-07-26T08:09:30.488Z,84.60
2018-07-26T08:11:58.940Z,84.40
2018-07-26T08:14:59.884Z,84.30
2018-07-26T08:17:28.336Z,84.70
2018-07-26T08:19:56.754Z,84.00
2018-07-26T08:22:25.162Z,84.20
2018-07-26T08:24:53.558Z,84.50
2018-07-26T08:27:22.000Z,85.00
2018-07-26T08:29:50.481Z,85.40
2018-07-26T08:32:18.900Z,85.90
2018-07-26T08:34:47.326Z,85.90
2018-07-26T08:37:15.754Z,85.90
2018-07-26T08:39:44.606Z,86.00
2018-07-26T08:42:13.027Z,85.10
2018-07-26T08:44:41.434Z,86.20
2018-07-26T08:47:09.908Z,86.70
2018-07-26T08:49:38.333Z,85.70
2018-07-26T08:52:06.790Z,85.50
2018-07-26T08:54:35.300Z,86.00
2018-07-26T08:57:03.784Z,85.40
2018-07-26T08:59:32.460Z,84.30
2018-07-26T09:02:00.913Z,84.80
2018-07-26T09:04:29.313Z,85.10
2018-07-26T09:06:57.766Z,84.90
2018-07-26T09:09:26.182Z,84.30
2018-07-26T09:11:54.601Z,84.40
2018-07-26T09:15:11.915Z,84.40
2018-07-26T09:17:40.337Z,84.40
2018-07-26T09:20:08.791Z,84.10
2018-07-26T09:22:37.216Z,84.30
2018-07-26T09:25:05.636Z,84.00
2018-07-26T09:27:34.077Z,84.60
2018-07-26T09:30:02.938Z,83.30
2018-07-26T09:32:31.343Z,84.00
2018-07-26T09:34:59.794Z,82.50
2018-07-26T09:37:28.333Z,83.60
2018-07-26T09:39:56.760Z,83.40
2018-07-26T09:42:25.264Z,83.00
2018-07-26T09:44:53.677Z,82.40
2018-07-26T09:47:22.184Z,83.10
2018-07-26T09:49:50.634Z,81.60
2018-07-26T09:54:47.297Z,81.50
2018-07-26T09:57:15.797Z,82.00
2018-07-26T09:59:44.238Z,81.90
2018-07-26T10:04:40.884Z,81.00
2018-07-26T10:07:09.341Z,80.50
2018-07-26T10:09:37.756Z,80.50
2018-07-26T10:17:51.579Z,78.10
2018-07-26T10:20:20.000Z,77.00
2018-07-26T10:22:48.378Z,76.60
2018-07-26T10:25:16.960Z,71.70
2018-07-26T10:27:45.339Z,71.60
2018-07-26T10:30:13.792Z,68.90
2018-07-26T10:32:42.229Z,68.20
2018-07-26T10:35:10.678Z,67.50
2018-07-26T10:37:39.133Z,66.00
2018-07-26T10:40:07.577Z,65.40
2018-07-26T10:42:36.037Z,66.70
2018-07-26T10:45:04.797Z,67.50
2018-07-26T10:47:33.228Z,64.20
2018-07-26T10:50:01.706Z,64.30
2018-07-26T10:52:30.113Z,64.60
2018-07-26T10:54:58.545Z,58.70
2018-07-26T10:57:27.002Z,59.40
2018-07-26T11:02:23.557Z,64.30
2018-07-26T11:07:20.197Z,64.50
2018-07-26T11:09:48.608Z,66.20
2018-07-26T11:12:17.038Z,66.40
2018-07-26T11:15:32.475Z,65.20
2018-07-26T11:18:01.481Z,64.60
2018-07-26T11:20:30.007Z,64.20
2018-07-26T11:22:58.726Z,64.40
2018-07-26T11:25:27.176Z,64.70
2018-07-26T11:27:55.629Z,65.60
2018-07-26T11:32:53.342Z,67.00
2018-07-26T11:35:21.753Z,66.90
2018-07-26T11:37:50.271Z,67.40
2018-07-26T11:40:18.726Z,65.10
2018-07-26T11:42:47.158Z,63.60
2018-07-26T11:45:16.142Z,64.10
2018-07-26T11:47:44.584Z,65.60
2018-07-26T11:50:13.767Z,65.70
2018-07-26T11:52:42.251Z,66.80
2018-07-26T11:55:10.788Z,67.10
2018-07-26T11:57:39.260Z,67.40
2018-07-26T12:00:08.570Z,66.90
2018-07-26T12:02:37.911Z,65.50
2018-07-26T12:05:06.377Z,64.70
2018-07-26T12:07:34.777Z,65.20
2018-07-26T12:10:03.262Z,64.90
2018-07-26T12:12:31.673Z,66.00
2018-07-26T12:15:27.395Z,70.60
2018-07-26T12:17:55.906Z,71.60
2018-07-26T12:20:24.323Z,72.40
2018-07-26T12:22:52.729Z,73.10
2018-07-26T12:25:21.157Z,72.30
2018-07-26T12:27:49.512Z,70.20
2018-07-26T12:30:17.973Z,69.70
2018-07-26T12:32:46.461Z,69.30
2018-07-26T12:37:43.096Z,66.70
2018-07-26T12:40:11.785Z,66.70
2018-07-26T12:42:40.266Z,67.70
2018-07-26T12:45:08.812Z,67.80
2018-07-26T12:47:37.373Z,67.60
2018-07-26T12:50:05.889Z,67.70
2018-07-26T12:52:34.689Z,70.30
2018-07-26T12:55:03.245Z,74.70
2018-07-26T12:57:31.701Z,72.40
2018-07-26T13:00:00.183Z,70.80
2018-07-26T13:02:28.733Z,72.80
2018-07-26T13:04:57.165Z,73.20
2018-07-26T13:07:25.682Z,72.80
2018-07-26T13:09:54.714Z,73.00
2018-07-26T13:12:23.184Z,73.60
2018-07-26T13:18:22.474Z,75.30
2018-07-26T13:20:58.509Z,76.30
2018-07-26T13:23:28.140Z,77.10
2018-07-26T13:25:56.580Z,77.60
2018-07-26T13:28:26.337Z,77.90
2018-07-26T13:31:09.554Z,76.50
2018-07-26T13:33:37.994Z,75.50
2018-07-26T13:36:06.451Z,76.60
2018-07-26T13:38:34.858Z,77.30
2018-07-26T13:41:03.369Z,77.70
2018-07-26T13:43:31.837Z,77.80
2018-07-26T13:46:01.009Z,78.00
2018-07-26T13:48:29.478Z,78.20
2018-07-26T13:55:55.299Z,78.80
2018-07-26T13:58:23.832Z,78.90
2018-07-26T14:00:52.315Z,80.00
2018-07-26T14:03:20.729Z,79.30
2018-07-26T14:05:49.177Z,78.70
2018-07-26T14:08:17.724Z,77.90
2018-07-26T14:10:46.200Z,78.30
2018-07-26T14:13:14.693Z,77.80
2018-07-26T14:19:06.765Z,78.50
2018-07-26T14:21:35.228Z,77.90
2018-07-26T14:24:08.920Z,78.60
2018-07-26T14:29:05.468Z,78.30
2018-07-26T14:31:33.923Z,78.20
2018-07-26T14:34:03.084Z,79.10
2018-07-26T14:39:00.079Z,80.00
2018-07-26T14:41:28.508Z,80.20
2018-07-26T14:43:56.883Z,80.30
2018-07-26T14:46:25.369Z,80.60
2018-07-26T14:48:53.813Z,80.40
2018-07-26T14:51:22.262Z,81.10
2018-07-26T14:53:50.741Z,81.00
2018-07-26T14:56:19.128Z,81.60
2018-07-26T14:58:47.903Z,81.80
2018-07-26T15:01:16.410Z,81.30
2018-07-26T15:03:44.841Z,81.80
2018-07-26T15:06:13.289Z,82.50
2018-07-26T15:08:41.769Z,82.60
2018-07-26T15:11:14.738Z,83.00
2018-07-26T15:13:43.192Z,83.00
2018-07-26T15:16:39.737Z,83.00
2018-07-26T15:19:08.236Z,84.60
2018-07-26T15:21:36.686Z,85.40
2018-07-26T15:24:05.120Z,85.60
2018-07-26T15:31:29.821Z,86.20
2018-07-26T15:33:58.279Z,86.30
2018-07-26T15:36:27.069Z,86.90
2018-07-26T15:38:55.637Z,86.20
2018-07-26T15:41:24.351Z,86.70
2018-07-26T15:43:52.777Z,86.10
2018-07-26T15:48:49.306Z,85.70
2018-07-26T15:51:17.918Z,85.90
2018-07-26T15:53:46.331Z,86.50
2018-07-26T15:56:14.756Z,87.60
2018-07-26T15:58:43.261Z,87.90
2018-07-26T16:01:11.719Z,87.80
2018-07-26T16:03:40.141Z,87.80
2018-07-26T16:08:36.689Z,88.10
2018-07-26T16:11:13.173Z,87.60
2018-07-26T16:13:41.612Z,87.70
2018-07-26T16:16:48.929Z,88.20
2018-07-26T16:19:17.412Z,88.30
2018-07-26T16:21:45.837Z,87.70
2018-07-26T16:24:14.253Z,87.30
2018-07-26T16:26:42.675Z,87.70
2018-07-26T16:29:11.112Z,87.70
2018-07-26T16:31:39.544Z,87.70
2018-07-26T16:34:08.026Z,88.10
2018-07-26T16:36:36.961Z,88.50
2018-07-26T16:39:08.318Z,88.20
2018-07-26T16:41:36.757Z,87.90
2018-07-26T16:44:05.181Z,87.60
2018-07-26T16:46:33.572Z,87.10
2018-07-26T16:49:02.289Z,87.10
2018-07-26T16:51:30.720Z,87.20
2018-07-26T16:53:59.512Z,86.70
2018-07-26T16:56:28.428Z,86.70
2018-07-26T16:58:56.964Z,86.80
2018-07-26T17:01:25.355Z,85.50
2018-07-26T17:03:53.841Z,86.30
2018-07-26T17:06:22.323Z,86.50
2018-07-26T17:08:50.789Z,86.10
2018-07-26T17:13:47.409Z,86.00
2018-07-26T17:17:02.093Z,85.30
2018-07-26T17:19:30.452Z,84.80
2018-07-26T17:21:58.924Z,85.00
2018-07-26T17:24:27.469Z,85.60
2018-07-26T17:26:55.925Z,85.80
2018-07-26T17:29:24.318Z,86.50
2018-07-26T17:34:20.948Z,86.40
2018-07-26T17:36:49.353Z,86.00
2018-07-26T17:39:18.065Z,85.90
2018-07-26T17:41:46.497Z,85.20
2018-07-26T17:44:14.952Z,85.30
2018-07-26T17:46:43.369Z,85.50
2018-07-26T17:49:12.048Z,85.30
2018-07-26T17:51:40.481Z,85.20
2018-07-26T17:54:08.868Z,85.60
2018-07-26T17:56:37.358Z,86.40
2018-07-26T17:59:06.162Z,86.90
2018-07-26T18:01:34.582Z,87.30
2018-07-26T18:04:02.971Z,87.50
2018-07-26T18:06:31.418Z,88.20
2018-07-26T18:08:59.916Z,87.70
2018-07-26T18:11:28.420Z,87.50
2018-07-26T18:13:56.893Z,87.00
2018-07-26T18:17:13.512Z,86.80
2018-07-26T18:19:42.001Z,87.00
2018-07-26T18:22:10.468Z,86.50
2018-07-26T18:24:38.869Z,87.10
2018-07-26T18:27:07.260Z,85.70
2018-07-26T18:29:35.819Z,85.40
2018-07-26T18:32:04.297Z,85.20
2018-07-26T18:34:32.704Z,85.20
2018-07-26T18:37:01.147Z,84.70
2018-07-26T18:39:29.529Z,84.50
2018-07-26T18:41:57.921Z,83.90
2018-07-26T18:44:26.387Z,83.70
2018-07-26T18:46:54.852Z,83.60
2018-07-26T18:49:23.383Z,83.10
2018-07-26T18:51:51.958Z,82.90
2018-07-26T18:54:21.169Z,82.80
2018-07-26T18:56:49.649Z,82.60
2018-07-26T18:59:18.125Z,82.50
2018-07-26T19:01:46.598Z,82.20
2018-07-26T19:04:15.088Z,82.20
2018-07-26T19:06:43.611Z,82.10
2018-07-26T19:11:41.872Z,81.80
2018-07-26T19:14:31.258Z,81.60
2018-07-26T19:17:26.341Z,81.50
2018-07-26T19:19:54.991Z,81.90
2018-07-26T19:22:23.688Z,80.60
2018-07-26T19:24:52.434Z,80.50
2018-07-26T19:27:21.193Z,80.70
2018-07-26T19:29:49.920Z,80.60
2018-07-26T19:32:18.743Z,80.50
2018-07-26T19:34:47.542Z,80.30
2018-07-26T19:37:16.059Z,80.40
2018-07-26T19:39:44.777Z,80.60
2018-07-26T19:42:13.461Z,81.00
2018-07-26T19:44:42.080Z,81.30
2018-07-26T19:47:10.900Z,81.70
2018-07-26T19:49:39.450Z,81.80
2018-07-26T19:52:08.913Z,82.30
2018-07-26T19:54:38.101Z,82.20
2018-07-26T19:57:07.661Z,82.40
2018-07-26T19:59:36.801Z,83.00
2018-07-26T20:02:05.948Z,82.90
2018-07-26T20:04:35.325Z,82.50
2018-07-26T20:07:04.120Z,82.30
2018-07-26T20:09:32.929Z,82.70
2018-07-26T20:12:02.180Z,82.80
2018-07-26T20:14:53.584Z,82.30
2018-07-26T20:17:34.740Z,83.10
2018-07-26T20:20:03.701Z,83.00
2018-07-26T20:22:32.206Z,83.40
2018-07-26T20:25:00.872Z,83.10
2018-07-26T20:28:34.737Z,83.10
2018-07-26T20:31:03.278Z,83.10
2018-07-26T20:33:31.680Z,83.50
2018-07-26T20:36:00.156Z,83.40
2018-07-26T20:38:30.674Z,83.00
2018-07-26T20:40:59.120Z,82.90
2018-07-26T20:43:29.178Z,82.80
2018-07-26T20:45:57.597Z,82.80
2018-07-26T20:48:27.711Z,82.40
2018-07-26T20:50:56.466Z,82.70
2018-07-26T20:53:24.848Z,82.80
2018-07-26T20:55:53.316Z,82.50
2018-07-26T20:58:21.750Z,82.00
2018-07-26T21:03:18.356Z,80.90
2018-07-26T21:05:46.797Z,80.90
2018-07-26T21:08:15.226Z,80.30
2018-07-26T21:10:43.670Z,80.20
2018-07-26T21:13:12.065Z,80.50
2018-07-26T21:16:16.235Z,81.00
2018-07-26T21:18:44.710Z,80.70
2018-07-26T21:21:13.112Z,80.60
2018-07-26T21:23:41.542Z,79.70
2018-07-26T21:26:10.026Z,79.70
2018-07-26T21:28:38.916Z,79.30
2018-07-26T21:31:07.480Z,78.50
2018-07-26T21:36:04.202Z,78.70
2018-07-26T21:38:32.657Z,78.80
2018-07-26T21:41:01.758Z,78.80
2018-07-26T21:43:30.364Z,79.10
2018-07-26T21:45:58.775Z,79.40
2018-07-26T21:48:28.889Z,79.20
2018-07-26T21:50:57.322Z,78.30
2018-07-26T21:53:25.811Z,77.60
2018-07-26T21:55:54.389Z,77.60
2018-07-26T21:58:22.849Z,77.90
2018-07-26T22:00:56.273Z,78.20
2018-07-26T22:03:27.259Z,79.20
2018-07-26T22:05:55.708Z,79.20
2018-07-26T22:08:24.237Z,79.20
2018-07-26T22:10:53.003Z,79.40
2018-07-26T22:13:21.690Z,79.20
2018-07-26T22:15:51.961Z,79.00
2018-07-26T22:18:20.757Z,79.20
2018-07-26T22:20:49.327Z,78.80
2018-07-26T22:23:17.848Z,79.10
2018-07-26T22:25:49.177Z,79.20
2018-07-26T22:28:18.085Z,79.10
2018-07-26T22:30:47.063Z,79.40
2018-07-26T22:33:16.432Z,79.90
2018-07-26T22:35:44.926Z,80.40
2018-07-26T22:40:42.485Z,80.70
2018-07-26T22:43:10.929Z,80.60
2018-07-26T22:45:39.832Z,80.50
2018-07-26T22:48:08.369Z,80.60
2018-07-26T22:50:36.884Z,80.40
2018-07-26T22:53:05.820Z,80.80
2018-07-26T22:55:34.685Z,81.10
2018-07-26T22:58:03.130Z,81.30
2018-07-26T23:00:31.510Z,81.30
2018-07-26T23:02:59.977Z,81.10
2018-07-26T23:05:28.400Z,81.50
2018-07-26T23:07:56.849Z,81.50
2018-07-26T23:10:25.334Z,81.60
2018-07-26T23:12:53.753Z,81.80
2018-07-26T23:15:22.190Z,81.80
2018-07-26T23:17:50.701Z,81.80
2018-07-26T23:20:19.135Z,81.70
2018-07-26T23:22:52.088Z,81.20
2018-07-26T23:25:20.749Z,81.20
2018-07-26T23:27:49.185Z,81.50
2018-07-26T23:30:18.393Z,81.90
2018-07-26T23:32:46.864Z,81.10
2018-07-26T23:35:15.697Z,81.50
2018-07-26T23:37:44.097Z,81.40
2018-07-26T23:40:12.585Z,80.90
2018-07-26T23:45:09.912Z,80.70
2018-07-26T23:47:38.346Z,80.20
2018-07-26T23:50:06.863Z,80.30
2018-07-26T23:52:35.573Z,80.80
2018-07-26T23:55:04.830Z,81.20
2018-07-26T23:57:33.568Z,81.40
